createdAt,value
2023-02-23T00:03:32.050Z,31.30
2023-02-23T00:13:31.939Z,32.10
2023-02-23T00:23:31.622Z,34.30
2023-02-23T00:33:31.778Z,32.80
2023-02-23T00:43:30.998Z,31.70
2023-02-23T00:53:30.796Z,33.00
2023-02-23T01:03:30.483Z,31.50
2023-02-23T01:13:30.375Z,36.20
2023-02-23T01:23:30.079Z,32.70
2023-02-23T01:33:29.818Z,32.70
2023-02-23T01:43:29.492Z,33.80
2023-02-23T01:53:29.073Z,34.20
2023-02-23T02:03:28.692Z,35.40
2023-02-23T02:13:28.408Z,33.60
2023-02-23T02:23:28.086Z,32.80
2023-02-23T02:33:27.971Z,34.10
2023-02-23T02:43:27.858Z,33.60
2023-02-23T02:53:30.457Z,34.00
2023-02-23T03:03:26.961Z,34.70
2023-02-23T03:13:26.735Z,36.90
2023-02-23T03:23:26.409Z,36.20
2023-02-23T03:33:26.163Z,36.00
2023-02-23T03:43:25.836Z,39.50
2023-02-23T03:53:25.723Z,39.40
2023-02-23T04:03:25.412Z,36.30
2023-02-23T04:13:24.894Z,35.90
2023-02-23T04:23:24.490Z,35.20
2023-02-23T04:33:25.791Z,32.50
2023-02-23T04:43:23.917Z,37.20
2023-02-23T04:53:23.568Z,42.40
2023-02-23T05:03:23.050Z,44.00
2023-02-23T05:13:22.705Z,40.80
2023-02-23T05:23:22.344Z,40.90
2023-02-23T05:33:26.978Z,41.50
2023-02-23T05:43:21.628Z,32.50
2023-02-23T05:53:21.461Z,32.90
2023-02-23T06:03:20.920Z,29.60
2023-02-23T06:13:20.814Z,27.30
2023-02-23T06:23:20.322Z,26.20
2023-02-23T06:33:19.796Z,28.80
2023-02-23T06:43:20.192Z,26.90
2023-02-23T06:53:19.058Z,28.30
2023-02-23T07:03:19.172Z,30.00
2023-02-23T07:13:18.331Z,29.90
2023-02-23T07:23:18.035Z,26.50
2023-02-23T07:33:17.637Z,27.70
2023-02-23T07:43:17.457Z,20.80
2023-02-23T07:53:17.079Z,37.90
2023-02-23T08:03:16.742Z,24.40
2023-02-23T08:13:16.376Z,23.20
2023-02-23T08:23:15.866Z,25.90
2023-02-23T08:33:15.459Z,47.00
2023-02-23T08:43:16.267Z,25.40
2023-02-23T08:53:14.765Z,20.10
2023-02-23T09:03:14.412Z,21.80
2023-02-23T09:13:14.042Z,24.40
2023-02-23T09:23:13.746Z,31.10
2023-02-23T09:33:13.466Z,35.10
2023-02-23T09:43:13.006Z,31.80
2023-02-23T09:53:12.621Z,33.60
2023-02-23T10:03:12.302Z,31.20
2023-02-23T10:13:11.900Z,36.00
2023-02-23T10:23:11.498Z,35.60
2023-02-23T10:33:11.195Z,36.60
2023-02-23T10:43:10.796Z,35.00
2023-02-23T10:53:10.509Z,31.60
2023-02-23T11:03:10.035Z,29.50
2023-02-23T11:13:09.680Z,25.70
2023-02-23T11:23:14.116Z,27.90
2023-02-23T11:33:09.071Z,29.00
2023-02-23T11:43:08.666Z,26.10
2023-02-23T11:53:08.849Z,29.40
2023-02-23T12:03:07.877Z,36.10
2023-02-23T12:13:07.485Z,37.00
2023-02-23T12:23:07.087Z,45.10
2023-02-23T12:33:06.844Z,40.70
2023-02-23T12:43:06.300Z,49.60
2023-02-23T12:53:05.945Z,43.10
2023-02-23T13:03:05.546Z,40.40
2023-02-23T13:13:05.422Z,42.80
2023-02-23T13:23:04.799Z,41.90
2023-02-23T13:33:04.474Z,31.40
2023-02-23T13:43:04.254Z,39.00
2023-02-23T13:53:03.856Z,34.70
2023-02-23T14:03:04.859Z,37.40
2023-02-23T14:13:03.079Z,42.60
2023-02-23T14:23:02.544Z,38.10
2023-02-23T14:33:10.104Z,33.00
2023-02-23T14:43:01.814Z,23.50
2023-02-23T14:53:01.707Z,22.20
2023-02-23T15:03:03.010Z,22.70
2023-02-23T15:13:00.663Z,21.60
2023-02-23T15:23:00.291Z,22.40
2023-02-23T15:33:00.074Z,20.10
2023-02-23T15:42:59.782Z,22.40
2023-02-23T15:52:59.343Z,28.60
2023-02-23T16:02:58.827Z,23.10
2023-02-23T16:13:01.583Z,25.50
2023-02-23T16:22:58.130Z,25.30
2023-02-23T16:32:57.903Z,26.90
2023-02-23T16:42:57.349Z,27.80
2023-02-23T16:52:56.989Z,24.30
2023-02-23T17:02:51.683Z,26.20
2023-02-23T17:12:51.082Z,25.50
2023-02-23T17:22:50.689Z,26.30
2023-02-23T17:32:50.370Z,22.20
2023-02-23T17:42:49.999Z,27.20
2023-02-23T17:52:49.598Z,32.50
2023-02-23T18:02:49.274Z,36.20
2023-02-23T18:12:48.864Z,37.40
2023-02-23T18:22:48.487Z,34.40
2023-02-23T18:32:48.180Z,22.20
2023-02-23T18:42:47.731Z,19.90
2023-02-23T18:52:47.481Z,17.30
2023-02-23T19:02:46.965Z,15.80
2023-02-23T19:12:46.837Z,20.30
2023-02-23T19:22:46.309Z,20.60
2023-02-23T19:32:46.045Z,22.90
2023-02-23T19:42:45.623Z,24.70
2023-02-23T19:52:45.176Z,23.40
2023-02-23T20:02:44.759Z,26.20
2023-02-23T20:12:44.355Z,28.10
2023-02-23T20:22:44.002Z,28.60
2023-02-23T20:32:43.732Z,30.40
2023-02-23T20:42:43.208Z,29.10
2023-02-23T20:52:42.983Z,30.20
2023-02-23T21:02:37.381Z,26.70
2023-02-23T21:12:36.862Z,29.90
2023-02-23T21:22:36.485Z,29.00
2023-02-23T21:32:36.235Z,32.10
2023-02-23T21:42:35.742Z,25.90
2023-02-23T21:52:35.378Z,27.50
2023-02-23T22:02:35.035Z,32.20
2023-02-23T22:12:34.948Z,30.40
2023-02-23T22:22:34.217Z,37.40
2023-02-23T22:32:33.656Z,36.10
2023-02-23T22:42:33.299Z,46.40
2023-02-23T22:52:32.747Z,35.90
2023-02-23T23:02:32.532Z,33.70
2023-02-23T23:12:31.998Z,21.90
2023-02-23T23:22:31.801Z,22.70
2023-02-23T23:32:31.322Z,18.50
2023-02-23T23:42:30.926Z,18.00
2023-02-23T23:52:30.562Z,13.00
